sensor_id;sensor_type;location;lat;lon;timestamp;P1;durP1;ratioP1;P2;durP2;ratioP2
63288;SDS011;49412;48.162;-1.978;2022-11-14T00:02:11;19.52;;;14.73;;
63288;SDS011;49412;48.162;-1.978;2022-11-14T00:04:37;18.45;;;14.45;;
63288;SDS011;49412;48.162;-1.978;2022-11-14T00:07:03;18.70;;;14.23;;
63288;SDS011;49412;48.162;-1.978;2022-11-14T00:19:11;20.48;;;13.27;;
63288;SDS011;49412;48.162;-1.978;2022-11-14T00:21:37;17.15;;;13.55;;
63288;SDS011;49412;48.162;-1.978;2022-11-14T00:24:03;16.60;;;13.10;;
63288;SDS011;49412;48.162;-1.978;2022-11-14T00:26:29;15.95;;;13.02;;
63288;SDS011;49412;48.162;-1.978;2022-11-14T00:31:21;15.98;;;12.55;;
63288;SDS011;49412;48.162;-1.978;2022-11-14T00:36:13;15.70;;;12.07;;
63288;SDS011;49412;48.162;-1.978;2022-11-14T00:38:38;16.80;;;13.55;;
63288;SDS011;49412;48.162;-1.978;2022-11-14T00:41:04;24.88;;;13.23;;
63288;SDS011;49412;48.162;-1.978;2022-11-14T00:43:30;20.42;;;11.80;;
63288;SDS011;49412;48.162;-1.978;2022-11-14T00:45:56;20.55;;;11.93;;
63288;SDS011;49412;48.162;-1.978;2022-11-14T00:48:22;22.92;;;12.63;;
63288;SDS011;49412;48.162;-1.978;2022-11-14T00:50:47;33.83;;;12.30;;
63288;SDS011;49412;48.162;-1.978;2022-11-14T00:53:14;17.77;;;11.82;;
63288;SDS011;49412;48.162;-1.978;2022-11-14T00:55:41;16.42;;;12.77;;
63288;SDS011;49412;48.162;-1.978;2022-11-14T00:58:07;15.35;;;11.55;;
63288;SDS011;49412;48.162;-1.978;2022-11-14T01:00:35;27.10;;;12.90;;
63288;SDS011;49412;48.162;-1.978;2022-11-14T01:03:01;15.07;;;11.93;;
63288;SDS011;49412;48.162;-1.978;2022-11-14T01:07:53;41.75;;;11.00;;
63288;SDS011;49412;48.162;-1.978;2022-11-14T01:10:19;14.02;;;11.10;;
63288;SDS011;49412;48.162;-1.978;2022-11-14T01:12:45;13.10;;;9.77;;
63288;SDS011;49412;48.162;-1.978;2022-11-14T01:17:36;14.15;;;11.05;;
63288;SDS011;49412;48.162;-1.978;2022-11-14T01:20:02;14.02;;;10.73;;
63288;SDS011;49412;48.162;-1.978;2022-11-14T01:22:29;12.90;;;10.13;;
63288;SDS011;49412;48.162;-1.978;2022-11-14T01:27:22;14.30;;;10.90;;
63288;SDS011;49412;48.162;-1.978;2022-11-14T01:29:49;15.32;;;10.35;;
63288;SDS011;49412;48.162;-1.978;2022-11-14T01:34:40;13.85;;;10.07;;
63288;SDS011;49412;48.162;-1.978;2022-11-14T01:37:06;13.05;;;10.00;;
63288;SDS011;49412;48.162;-1.978;2022-11-14T01:47:04;13.32;;;9.68;;
63288;SDS011;49412;48.162;-1.978;2022-11-14T01:49:33;12.30;;;9.23;;
63288;SDS011;49412;48.162;-1.978;2022-11-14T01:52:08;11.98;;;8.68;;
63288;SDS011;49412;48.162;-1.978;2022-11-14T01:55:02;12.18;;;8.88;;
63288;SDS011;49412;48.162;-1.978;2022-11-14T01:57:37;12.20;;;8.68;;
63288;SDS011;49412;48.162;-1.978;2022-11-14T02:00:09;13.57;;;10.23;;
63288;SDS011;49412;48.162;-1.978;2022-11-14T02:02:36;13.75;;;10.02;;
63288;SDS011;49412;48.162;-1.978;2022-11-14T02:05:04;14.20;;;10.10;;
63288;SDS011;49412;48.162;-1.978;2022-11-14T02:07:33;16.65;;;11.05;;
63288;SDS011;49412;48.162;-1.978;2022-11-14T02:10:03;12.95;;;10.00;;
63288;SDS011;49412;48.162;-1.978;2022-11-14T02:12:32;13.40;;;10.05;;
63288;SDS011;49412;48.162;-1.978;2022-11-14T02:17:24;14.00;;;10.43;;
63288;SDS011;49412;48.162;-1.978;2022-11-14T02:22:17;13.98;;;10.98;;
63288;SDS011;49412;48.162;-1.978;2022-11-14T02:29:35;16.10;;;11.35;;
63288;SDS011;49412;48.162;-1.978;2022-11-14T02:34:27;12.27;;;9.73;;
63288;SDS011;49412;48.162;-1.978;2022-11-14T02:36:53;14.23;;;9.63;;
63288;SDS011;49412;48.162;-1.978;2022-11-14T02:39:20;19.75;;;9.85;;
63288;SDS011;49412;48.162;-1.978;2022-11-14T02:41:46;12.77;;;9.88;;
63288;SDS011;49412;48.162;-1.978;2022-11-14T02:44:11;13.27;;;10.00;;
63288;SDS011;49412;48.162;-1.978;2022-11-14T02:46:37;14.77;;;9.35;;
63288;SDS011;49412;48.162;-1.978;2022-11-14T02:49:03;13.30;;;9.98;;
63288;SDS011;49412;48.162;-1.978;2022-11-14T02:51:30;12.13;;;9.30;;
63288;SDS011;49412;48.162;-1.978;2022-11-14T02:58:47;14.68;;;10.23;;
63288;SDS011;49412;48.162;-1.978;2022-11-14T03:01:12;12.55;;;10.07;;
63288;SDS011;49412;48.162;-1.978;2022-11-14T03:03:38;12.55;;;9.85;;
63288;SDS011;49412;48.162;-1.978;2022-11-14T03:06:04;13.60;;;9.43;;
63288;SDS011;49412;48.162;-1.978;2022-11-14T03:08:30;13.20;;;10.00;;
63288;SDS011;49412;48.162;-1.978;2022-11-14T03:13:28;13.55;;;9.95;;
63288;SDS011;49412;48.162;-1.978;2022-11-14T03:15:54;13.90;;;10.30;;
63288;SDS011;49412;48.162;-1.978;2022-11-14T03:20:46;16.58;;;9.63;;
63288;SDS011;49412;48.162;-1.978;2022-11-14T03:23:12;12.38;;;9.50;;
63288;SDS011;49412;48.162;-1.978;2022-11-14T03:25:37;12.07;;;8.65;;
63288;SDS011;49412;48.162;-1.978;2022-11-14T03:28:03;12.35;;;8.82;;
63288;SDS011;49412;48.162;-1.978;2022-11-14T03:30:29;14.50;;;9.98;;
63288;SDS011;49412;48.162;-1.978;2022-11-14T03:32:55;12.23;;;8.82;;
63288;SDS011;49412;48.162;-1.978;2022-11-14T03:35:22;11.40;;;8.52;;
63288;SDS011;49412;48.162;-1.978;2022-11-14T03:37:48;11.32;;;8.10;;
63288;SDS011;49412;48.162;-1.978;2022-11-14T03:40:14;10.60;;;7.63;;
63288;SDS011;49412;48.162;-1.978;2022-11-14T03:42:39;12.85;;;9.40;;
63288;SDS011;49412;48.162;-1.978;2022-11-14T03:45:05;11.18;;;8.10;;
63288;SDS011;49412;48.162;-1.978;2022-11-14T03:49:57;11.93;;;7.93;;
63288;SDS011;49412;48.162;-1.978;2022-11-14T03:52:22;11.20;;;8.32;;
63288;SDS011;49412;48.162;-1.978;2022-11-14T03:54:50;10.93;;;7.40;;
63288;SDS011;49412;48.162;-1.978;2022-11-14T03:57:16;12.55;;;8.40;;
63288;SDS011;49412;48.162;-1.978;2022-11-14T03:59:42;10.77;;;7.40;;
63288;SDS011;49412;48.162;-1.978;2022-11-14T04:02:07;10.05;;;6.82;;
63288;SDS011;49412;48.162;-1.978;2022-11-14T04:04:33;11.82;;;8.55;;
63288;SDS011;49412;48.162;-1.978;2022-11-14T04:06:59;11.10;;;8.10;;
63288;SDS011;49412;48.162;-1.978;2022-11-14T04:09:24;10.93;;;8.15;;
63288;SDS011;49412;48.162;-1.978;2022-11-14T04:11:50;11.88;;;7.55;;
63288;SDS011;49412;48.162;-1.978;2022-11-14T04:14:16;10.75;;;7.78;;
63288;SDS011;49412;48.162;-1.978;2022-11-14T04:16:41;11.57;;;8.43;;
63288;SDS011;49412;48.162;-1.978;2022-11-14T04:19:07;12.57;;;8.10;;
63288;SDS011;49412;48.162;-1.978;2022-11-14T04:21:33;10.20;;;7.28;;
63288;SDS011;49412;48.162;-1.978;2022-11-14T04:23:59;12.00;;;8.07;;
63288;SDS011;49412;48.162;-1.978;2022-11-14T04:26:24;12.57;;;8.38;;
63288;SDS011;49412;48.162;-1.978;2022-11-14T04:28:50;10.90;;;7.72;;
63288;SDS011;49412;48.162;-1.978;2022-11-14T04:31:16;12.20;;;8.07;;
63288;SDS011;49412;48.162;-1.978;2022-11-14T04:33:41;12.13;;;7.47;;
63288;SDS011;49412;48.162;-1.978;2022-11-14T04:36:07;10.68;;;7.18;;
63288;SDS011;49412;48.162;-1.978;2022-11-14T04:38:33;12.48;;;9.07;;
63288;SDS011;49412;48.162;-1.978;2022-11-14T04:40:58;12.98;;;8.70;;
63288;SDS011;49412;48.162;-1.978;2022-11-14T04:43:24;11.45;;;8.27;;
63288;SDS011;49412;48.162;-1.978;2022-11-14T04:45:50;11.20;;;7.93;;
63288;SDS011;49412;48.162;-1.978;2022-11-14T04:48:15;11.68;;;8.20;;
63288;SDS011;49412;48.162;-1.978;2022-11-14T04:50:41;11.40;;;8.20;;
63288;SDS011;49412;48.162;-1.978;2022-11-14T04:53:08;12.60;;;8.10;;
63288;SDS011;49412;48.162;-1.978;2022-11-14T04:55:34;12.10;;;8.15;;
63288;SDS011;49412;48.162;-1.978;2022-11-14T04:58:00;11.98;;;8.85;;
63288;SDS011;49412;48.162;-1.978;2022-11-14T05:00:26;10.60;;;7.70;;
63288;SDS011;49412;48.162;-1.978;2022-11-14T05:02:52;10.32;;;7.30;;
63288;SDS011;49412;48.162;-1.978;2022-11-14T05:05:18;10.07;;;7.10;;
63288;SDS011;49412;48.162;-1.978;2022-11-14T05:07:44;12.18;;;8.00;;
63288;SDS011;49412;48.162;-1.978;2022-11-14T05:10:09;12.25;;;8.30;;
63288;SDS011;49412;48.162;-1.978;2022-11-14T05:12:35;11.05;;;7.97;;
63288;SDS011;49412;48.162;-1.978;2022-11-14T05:15:01;10.75;;;7.63;;
63288;SDS011;49412;48.162;-1.978;2022-11-14T05:17:27;10.80;;;7.28;;
63288;SDS011;49412;48.162;-1.978;2022-11-14T05:19:52;10.32;;;7.35;;
63288;SDS011;49412;48.162;-1.978;2022-11-14T05:22:18;10.57;;;7.65;;
63288;SDS011;49412;48.162;-1.978;2022-11-14T05:24:44;10.40;;;7.18;;
63288;SDS011;49412;48.162;-1.978;2022-11-14T05:27:10;10.25;;;7.30;;
63288;SDS011;49412;48.162;-1.978;2022-11-14T05:29:35;11.43;;;7.60;;
63288;SDS011;49412;48.162;-1.978;2022-11-14T05:32:01;11.23;;;7.57;;
63288;SDS011;49412;48.162;-1.978;2022-11-14T05:34:27;12.25;;;8.55;;
63288;SDS011;49412;48.162;-1.978;2022-11-14T05:36:52;12.20;;;8.43;;
63288;SDS011;49412;48.162;-1.978;2022-11-14T05:39:18;14.07;;;8.25;;
63288;SDS011;49412;48.162;-1.978;2022-11-14T05:41:44;12.63;;;7.85;;
63288;SDS011;49412;48.162;-1.978;2022-11-14T05:44:10;13.10;;;8.68;;
63288;SDS011;49412;48.162;-1.978;2022-11-14T05:46:35;11.65;;;8.32;;
63288;SDS011;49412;48.162;-1.978;2022-11-14T05:49:01;12.05;;;8.43;;
63288;SDS011;49412;48.162;-1.978;2022-11-14T05:51:27;13.63;;;9.30;;
63288;SDS011;49412;48.162;-1.978;2022-11-14T05:53:52;14.70;;;9.80;;
63288;SDS011;49412;48.162;-1.978;2022-11-14T05:56:19;12.63;;;8.38;;
63288;SDS011;49412;48.162;-1.978;2022-11-14T05:58:45;13.48;;;9.57;;
63288;SDS011;49412;48.162;-1.978;2022-11-14T06:01:15;13.93;;;9.20;;
63288;SDS011;49412;48.162;-1.978;2022-11-14T06:03:43;11.43;;;8.15;;
63288;SDS011;49412;48.162;-1.978;2022-11-14T06:06:14;13.88;;;9.20;;
63288;SDS011;49412;48.162;-1.978;2022-11-14T06:08:41;12.95;;;10.00;;
63288;SDS011;49412;48.162;-1.978;2022-11-14T06:11:08;14.05;;;9.02;;
63288;SDS011;49412;48.162;-1.978;2022-11-14T06:13:35;14.45;;;9.13;;
63288;SDS011;49412;48.162;-1.978;2022-11-14T06:16:02;14.77;;;9.52;;
63288;SDS011;49412;48.162;-1.978;2022-11-14T06:18:30;15.73;;;9.13;;
63288;SDS011;49412;48.162;-1.978;2022-11-14T06:21:03;12.90;;;9.52;;
63288;SDS011;49412;48.162;-1.978;2022-11-14T06:23:31;12.32;;;8.65;;
63288;SDS011;49412;48.162;-1.978;2022-11-14T06:28:26;14.65;;;9.25;;
63288;SDS011;49412;48.162;-1.978;2022-11-14T06:30:56;12.68;;;8.45;;
63288;SDS011;49412;48.162;-1.978;2022-11-14T06:33:23;12.95;;;9.02;;
63288;SDS011;49412;48.162;-1.978;2022-11-14T06:38:14;11.98;;;8.13;;
63288;SDS011;49412;48.162;-1.978;2022-11-14T06:40:40;15.07;;;9.00;;
63288;SDS011;49412;48.162;-1.978;2022-11-14T06:43:06;13.95;;;8.95;;
63288;SDS011;49412;48.162;-1.978;2022-11-14T06:45:31;13.25;;;8.55;;
63288;SDS011;49412;48.162;-1.978;2022-11-14T06:47:57;11.70;;;8.05;;
63288;SDS011;49412;48.162;-1.978;2022-11-14T06:50:24;12.60;;;8.65;;
63288;SDS011;49412;48.162;-1.978;2022-11-14T06:55:15;11.32;;;8.07;;
63288;SDS011;49412;48.162;-1.978;2022-11-14T06:57:41;13.57;;;8.70;;
63288;SDS011;49412;48.162;-1.978;2022-11-14T07:00:07;17.60;;;10.63;;
63288;SDS011;49412;48.162;-1.978;2022-11-14T07:04:58;13.45;;;8.38;;
63288;SDS011;49412;48.162;-1.978;2022-11-14T07:07:24;15.38;;;9.02;;
63288;SDS011;49412;48.162;-1.978;2022-11-14T07:09:50;13.65;;;9.10;;
63288;SDS011;49412;48.162;-1.978;2022-11-14T07:12:16;13.63;;;9.05;;
63288;SDS011;49412;48.162;-1.978;2022-11-14T07:14:41;13.05;;;9.10;;
63288;SDS011;49412;48.162;-1.978;2022-11-14T07:17:07;14.63;;;8.77;;
63288;SDS011;49412;48.162;-1.978;2022-11-14T07:19:33;13.48;;;8.75;;
63288;SDS011;49412;48.162;-1.978;2022-11-14T07:24:24;11.52;;;7.90;;
63288;SDS011;49412;48.162;-1.978;2022-11-14T07:26:53;11.57;;;8.05;;
63288;SDS011;49412;48.162;-1.978;2022-11-14T07:29:19;12.35;;;7.97;;
63288;SDS011;49412;48.162;-1.978;2022-11-14T07:39:01;14.77;;;8.60;;
63288;SDS011;49412;48.162;-1.978;2022-11-14T07:41:27;12.00;;;8.20;;
63288;SDS011;49412;48.162;-1.978;2022-11-14T07:43:53;13.43;;;9.00;;
63288;SDS011;49412;48.162;-1.978;2022-11-14T07:46:18;11.93;;;8.38;;
63288;SDS011;49412;48.162;-1.978;2022-11-14T07:48:44;12.23;;;8.38;;
63288;SDS011;49412;48.162;-1.978;2022-11-14T07:53:40;14.75;;;8.70;;
63288;SDS011;49412;48.162;-1.978;2022-11-14T07:58:35;13.60;;;9.10;;
63288;SDS011;49412;48.162;-1.978;2022-11-14T08:01:02;13.40;;;8.57;;
63288;SDS011;49412;48.162;-1.978;2022-11-14T08:03:30;16.55;;;9.02;;
63288;SDS011;49412;48.162;-1.978;2022-11-14T08:06:06;15.30;;;9.40;;
63288;SDS011;49412;48.162;-1.978;2022-11-14T08:08:34;18.92;;;9.23;;
63288;SDS011;49412;48.162;-1.978;2022-11-14T08:11:00;19.98;;;9.55;;
63288;SDS011;49412;48.162;-1.978;2022-11-14T08:13:26;15.50;;;9.90;;
63288;SDS011;49412;48.162;-1.978;2022-11-14T08:15:53;15.02;;;10.15;;
63288;SDS011;49412;48.162;-1.978;2022-11-14T08:18:19;14.40;;;9.50;;
63288;SDS011;49412;48.162;-1.978;2022-11-14T08:23:11;15.00;;;9.23;;
63288;SDS011;49412;48.162;-1.978;2022-11-14T08:25:37;14.93;;;10.20;;
63288;SDS011;49412;48.162;-1.978;2022-11-14T08:28:03;15.48;;;9.40;;
63288;SDS011;49412;48.162;-1.978;2022-11-14T08:35:21;14.57;;;9.25;;
63288;SDS011;49412;48.162;-1.978;2022-11-14T08:40:13;12.95;;;9.10;;
63288;SDS011;49412;48.162;-1.978;2022-11-14T08:42:38;14.82;;;10.00;;
63288;SDS011;49412;48.162;-1.978;2022-11-14T08:47:30;15.18;;;9.38;;
63288;SDS011;49412;48.162;-1.978;2022-11-14T08:49:56;17.13;;;9.05;;
63288;SDS011;49412;48.162;-1.978;2022-11-14T08:54:47;13.98;;;9.05;;
63288;SDS011;49412;48.162;-1.978;2022-11-14T08:57:13;17.52;;;10.60;;
63288;SDS011;49412;48.162;-1.978;2022-11-14T09:02:05;15.65;;;9.45;;
63288;SDS011;49412;48.162;-1.978;2022-11-14T09:04:33;16.23;;;9.95;;
63288;SDS011;49412;48.162;-1.978;2022-11-14T09:09:24;15.25;;;9.40;;
63288;SDS011;49412;48.162;-1.978;2022-11-14T09:11:50;15.38;;;9.43;;
63288;SDS011;49412;48.162;-1.978;2022-11-14T09:14:15;16.50;;;9.95;;
63288;SDS011;49412;48.162;-1.978;2022-11-14T09:19:07;17.70;;;8.90;;
63288;SDS011;49412;48.162;-1.978;2022-11-14T09:21:32;16.42;;;9.38;;
63288;SDS011;49412;48.162;-1.978;2022-11-14T09:23:58;17.20;;;9.65;;
63288;SDS011;49412;48.162;-1.978;2022-11-14T09:26:24;16.80;;;9.45;;
63288;SDS011;49412;48.162;-1.978;2022-11-14T09:31:15;17.63;;;9.00;;
63288;SDS011;49412;48.162;-1.978;2022-11-14T09:33:41;15.70;;;9.63;;
63288;SDS011;49412;48.162;-1.978;2022-11-14T09:38:34;17.08;;;9.07;;
63288;SDS011;49412;48.162;-1.978;2022-11-14T09:43:59;17.08;;;9.48;;
63288;SDS011;49412;48.162;-1.978;2022-11-14T09:46:42;17.45;;;9.05;;
63288;SDS011;49412;48.162;-1.978;2022-11-14T09:52:02;20.67;;;9.68;;
63288;SDS011;49412;48.162;-1.978;2022-11-14T09:54:41;16.52;;;9.85;;
63288;SDS011;49412;48.162;-1.978;2022-11-14T09:57:16;16.63;;;9.35;;
63288;SDS011;49412;48.162;-1.978;2022-11-14T09:59:44;15.05;;;9.07;;
63288;SDS011;49412;48.162;-1.978;2022-11-14T10:08:22;18.08;;;10.05;;
63288;SDS011;49412;48.162;-1.978;2022-11-14T10:11:09;18.45;;;10.63;;
63288;SDS011;49412;48.162;-1.978;2022-11-14T10:20:18;17.27;;;10.52;;
63288;SDS011;49412;48.162;-1.978;2022-11-14T10:30:45;20.67;;;10.35;;
63288;SDS011;49412;48.162;-1.978;2022-11-14T10:36:11;17.50;;;10.73;;
63288;SDS011;49412;48.162;-1.978;2022-11-14T10:41:25;17.65;;;10.82;;
63288;SDS011;49412;48.162;-1.978;2022-11-14T10:43:52;20.25;;;11.07;;
63288;SDS011;49412;48.162;-1.978;2022-11-14T10:46:24;17.85;;;10.82;;
63288;SDS011;49412;48.162;-1.978;2022-11-14T10:48:54;17.83;;;10.95;;
63288;SDS011;49412;48.162;-1.978;2022-11-14T10:54:01;18.23;;;10.88;;
63288;SDS011;49412;48.162;-1.978;2022-11-14T10:56:47;16.65;;;9.60;;
63288;SDS011;49412;48.162;-1.978;2022-11-14T10:59:13;13.70;;;7.90;;
63288;SDS011;49412;48.162;-1.978;2022-11-14T11:01:41;15.43;;;7.32;;
63288;SDS011;49412;48.162;-1.978;2022-11-14T11:04:17;13.93;;;6.53;;
63288;SDS011;49412;48.162;-1.978;2022-11-14T11:06:45;10.90;;;5.65;;
63288;SDS011;49412;48.162;-1.978;2022-11-14T11:09:15;10.43;;;4.75;;
63288;SDS011;49412;48.162;-1.978;2022-11-14T11:12:05;11.18;;;5.03;;
63288;SDS011;49412;48.162;-1.978;2022-11-14T11:14:32;8.52;;;4.15;;
63288;SDS011;49412;48.162;-1.978;2022-11-14T11:19:37;8.07;;;3.72;;
63288;SDS011;49412;48.162;-1.978;2022-11-14T11:22:03;8.05;;;3.90;;
63288;SDS011;49412;48.162;-1.978;2022-11-14T11:24:46;7.13;;;3.65;;
63288;SDS011;49412;48.162;-1.978;2022-11-14T11:30:00;12.27;;;6.13;;
63288;SDS011;49412;48.162;-1.978;2022-11-14T11:32:47;15.10;;;7.10;;
63288;SDS011;49412;48.162;-1.978;2022-11-14T11:35:14;7.68;;;3.20;;
63288;SDS011;49412;48.162;-1.978;2022-11-14T11:37:52;7.65;;;2.90;;
63288;SDS011;49412;48.162;-1.978;2022-11-14T11:40:22;6.13;;;3.05;;
63288;SDS011;49412;48.162;-1.978;2022-11-14T11:45:56;5.05;;;2.42;;
63288;SDS011;49412;48.162;-1.978;2022-11-14T11:48:26;5.57;;;2.60;;
63288;SDS011;49412;48.162;-1.978;2022-11-14T11:51:04;6.28;;;2.80;;
63288;SDS011;49412;48.162;-1.978;2022-11-14T11:53:45;5.65;;;2.50;;
63288;SDS011;49412;48.162;-1.978;2022-11-14T11:56:26;4.78;;;2.30;;
63288;SDS011;49412;48.162;-1.978;2022-11-14T11:59:06;4.63;;;1.90;;
63288;SDS011;49412;48.162;-1.978;2022-11-14T12:01:53;4.57;;;1.90;;
63288;SDS011;49412;48.162;-1.978;2022-11-14T12:04:19;2.97;;;1.70;;
63288;SDS011;49412;48.162;-1.978;2022-11-14T12:06:51;4.75;;;1.42;;
63288;SDS011;49412;48.162;-1.978;2022-11-14T12:09:31;3.05;;;1.50;;
63288;SDS011;49412;48.162;-1.978;2022-11-14T12:12:02;2.15;;;1.20;;
63288;SDS011;49412;48.162;-1.978;2022-11-14T12:20:32;4.32;;;0.90;;
63288;SDS011;49412;48.162;-1.978;2022-11-14T12:23:25;2.83;;;1.33;;
63288;SDS011;49412;48.162;-1.978;2022-11-14T12:32:03;2.15;;;1.13;;
63288;SDS011;49412;48.162;-1.978;2022-11-14T12:34:32;3.40;;;1.40;;
63288;SDS011;49412;48.162;-1.978;2022-11-14T12:37:27;3.40;;;1.20;;
63288;SDS011;49412;48.162;-1.978;2022-11-14T12:40:01;15.82;;;8.57;;
63288;SDS011;49412;48.162;-1.978;2022-11-14T12:42:29;6.72;;;2.85;;
63288;SDS011;49412;48.162;-1.978;2022-11-14T12:44:56;3.60;;;1.40;;
63288;SDS011;49412;48.162;-1.978;2022-11-14T12:47:23;5.07;;;1.40;;
63288;SDS011;49412;48.162;-1.978;2022-11-14T13:06:22;6.20;;;1.27;;
63288;SDS011;49412;48.162;-1.978;2022-11-14T13:11:47;4.60;;;1.58;;
63288;SDS011;49412;48.162;-1.978;2022-11-14T13:14:46;5.18;;;1.50;;
63288;SDS011;49412;48.162;-1.978;2022-11-14T13:17:31;4.18;;;1.83;;
63288;SDS011;49412;48.162;-1.978;2022-11-14T13:23:04;6.47;;;1.50;;
63288;SDS011;49412;48.162;-1.978;2022-11-14T13:25:30;4.55;;;1.60;;
63288;SDS011;49412;48.162;-1.978;2022-11-14T13:27:56;3.85;;;1.80;;
63288;SDS011;49412;48.162;-1.978;2022-11-14T13:31:16;4.97;;;1.80;;
63288;SDS011;49412;48.162;-1.978;2022-11-14T13:33:47;5.90;;;1.88;;
63288;SDS011;49412;48.162;-1.978;2022-11-14T13:50:14;7.63;;;1.48;;
63288;SDS011;49412;48.162;-1.978;2022-11-14T13:52:44;8.18;;;1.38;;
63288;SDS011;49412;48.162;-1.978;2022-11-14T13:55:21;7.15;;;1.63;;
63288;SDS011;49412;48.162;-1.978;2022-11-14T14:00:20;5.28;;;1.50;;
63288;SDS011;49412;48.162;-1.978;2022-11-14T14:05:29;7.07;;;1.70;;
63288;SDS011;49412;48.162;-1.978;2022-11-14T14:08:08;3.85;;;1.40;;
63288;SDS011;49412;48.162;-1.978;2022-11-14T14:27:27;4.85;;;1.70;;
63288;SDS011;49412;48.162;-1.978;2022-11-14T14:30:08;8.85;;;1.70;;
63288;SDS011;49412;48.162;-1.978;2022-11-14T14:32:39;8.18;;;1.90;;
63288;SDS011;49412;48.162;-1.978;2022-11-14T14:35:19;6.65;;;1.85;;
63288;SDS011;49412;48.162;-1.978;2022-11-14T14:37:53;6.25;;;1.73;;
63288;SDS011;49412;48.162;-1.978;2022-11-14T14:42:52;7.18;;;1.92;;
63288;SDS011;49412;48.162;-1.978;2022-11-14T14:45:19;5.07;;;1.70;;
63288;SDS011;49412;48.162;-1.978;2022-11-14T14:47:47;8.43;;;1.83;;
63288;SDS011;49412;48.162;-1.978;2022-11-14T14:50:36;5.00;;;1.88;;
63288;SDS011;49412;48.162;-1.978;2022-11-14T14:53:05;7.05;;;2.03;;
63288;SDS011;49412;48.162;-1.978;2022-11-14T14:55:32;9.82;;;2.10;;
63288;SDS011;49412;48.162;-1.978;2022-11-14T15:01:02;7.75;;;1.77;;
63288;SDS011;49412;48.162;-1.978;2022-11-14T15:06:34;8.65;;;1.88;;
63288;SDS011;49412;48.162;-1.978;2022-11-14T15:09:16;4.85;;;1.70;;
63288;SDS011;49412;48.162;-1.978;2022-11-14T15:11:43;6.50;;;1.80;;
63288;SDS011;49412;48.162;-1.978;2022-11-14T15:14:13;7.82;;;2.03;;
63288;SDS011;49412;48.162;-1.978;2022-11-14T15:16:41;6.50;;;2.10;;
63288;SDS011;49412;48.162;-1.978;2022-11-14T15:19:11;7.25;;;2.20;;
63288;SDS011;49412;48.162;-1.978;2022-11-14T15:21:39;8.73;;;2.20;;
63288;SDS011;49412;48.162;-1.978;2022-11-14T15:24:13;5.25;;;1.70;;
63288;SDS011;49412;48.162;-1.978;2022-11-14T15:26:42;5.85;;;1.60;;
63288;SDS011;49412;48.162;-1.978;2022-11-14T15:29:17;4.55;;;1.70;;
63288;SDS011;49412;48.162;-1.978;2022-11-14T15:31:54;6.03;;;2.00;;
63288;SDS011;49412;48.162;-1.978;2022-11-14T15:39:34;8.50;;;1.80;;
63288;SDS011;49412;48.162;-1.978;2022-11-14T15:42:11;6.75;;;2.08;;
63288;SDS011;49412;48.162;-1.978;2022-11-14T15:44:37;5.35;;;1.65;;
63288;SDS011;49412;48.162;-1.978;2022-11-14T15:47:08;5.57;;;1.70;;
63288;SDS011;49412;48.162;-1.978;2022-11-14T15:49:37;8.48;;;1.83;;
63288;SDS011;49412;48.162;-1.978;2022-11-14T15:52:03;7.07;;;1.60;;
63288;SDS011;49412;48.162;-1.978;2022-11-14T15:54:33;7.00;;;1.60;;
63288;SDS011;49412;48.162;-1.978;2022-11-14T15:57:11;6.63;;;1.83;;
63288;SDS011;49412;48.162;-1.978;2022-11-14T15:59:38;5.10;;;1.30;;
63288;SDS011;49412;48.162;-1.978;2022-11-14T16:05:12;9.05;;;1.67;;
63288;SDS011;49412;48.162;-1.978;2022-11-14T16:07:39;5.60;;;1.70;;
63288;SDS011;49412;48.162;-1.978;2022-11-14T16:10:21;8.30;;;1.60;;
63288;SDS011;49412;48.162;-1.978;2022-11-14T16:12:48;8.15;;;1.75;;
63288;SDS011;49412;48.162;-1.978;2022-11-14T16:15:14;7.20;;;1.60;;
63288;SDS011;49412;48.162;-1.978;2022-11-14T16:17:41;6.70;;;1.40;;
63288;SDS011;49412;48.162;-1.978;2022-11-14T16:20:13;7.07;;;1.65;;
63288;SDS011;49412;48.162;-1.978;2022-11-14T16:22:40;6.38;;;1.70;;
63288;SDS011;49412;48.162;-1.978;2022-11-14T16:25:17;8.50;;;1.80;;
63288;SDS011;49412;48.162;-1.978;2022-11-14T16:27:48;7.93;;;1.63;;
63288;SDS011;49412;48.162;-1.978;2022-11-14T16:32:40;8.45;;;1.38;;
63288;SDS011;49412;48.162;-1.978;2022-11-14T16:37:39;7.93;;;2.03;;
63288;SDS011;49412;48.162;-1.978;2022-11-14T16:40:05;12.10;;;1.95;;
63288;SDS011;49412;48.162;-1.978;2022-11-14T16:42:35;10.23;;;2.20;;
63288;SDS011;49412;48.162;-1.978;2022-11-14T16:45:03;10.98;;;2.22;;
63288;SDS011;49412;48.162;-1.978;2022-11-14T16:47:29;7.47;;;2.05;;
63288;SDS011;49412;48.162;-1.978;2022-11-14T16:49:56;8.52;;;2.10;;
63288;SDS011;49412;48.162;-1.978;2022-11-14T16:54:48;6.65;;;1.70;;
63288;SDS011;49412;48.162;-1.978;2022-11-14T16:59:39;9.35;;;1.80;;
63288;SDS011;49412;48.162;-1.978;2022-11-14T17:04:31;5.80;;;1.73;;
63288;SDS011;49412;48.162;-1.978;2022-11-14T17:06:56;10.40;;;1.90;;
63288;SDS011;49412;48.162;-1.978;2022-11-14T17:11:48;6.93;;;1.55;;
63288;SDS011;49412;48.162;-1.978;2022-11-14T17:14:13;9.23;;;1.95;;
63288;SDS011;49412;48.162;-1.978;2022-11-14T17:23:58;13.82;;;1.92;;
63288;SDS011;49412;48.162;-1.978;2022-11-14T17:26:28;6.90;;;1.90;;
63288;SDS011;49412;48.162;-1.978;2022-11-14T17:28:54;10.48;;;2.25;;
63288;SDS011;49412;48.162;-1.978;2022-11-14T17:33:49;13.60;;;4.00;;
63288;SDS011;49412;48.162;-1.978;2022-11-14T17:36:16;17.33;;;6.18;;
63288;SDS011;49412;48.162;-1.978;2022-11-14T17:45:59;12.07;;;3.33;;
63288;SDS011;49412;48.162;-1.978;2022-11-14T17:48:25;9.93;;;2.40;;
63288;SDS011;49412;48.162;-1.978;2022-11-14T17:50:51;7.00;;;2.30;;
63288;SDS011;49412;48.162;-1.978;2022-11-14T17:53:17;12.13;;;2.22;;
63288;SDS011;49412;48.162;-1.978;2022-11-14T17:55:44;13.82;;;2.53;;
63288;SDS011;49412;48.162;-1.978;2022-11-14T17:58:10;12.43;;;2.40;;
63288;SDS011;49412;48.162;-1.978;2022-11-14T18:00:37;10.98;;;2.50;;
63288;SDS011;49412;48.162;-1.978;2022-11-14T18:03:03;8.20;;;2.22;;
63288;SDS011;49412;48.162;-1.978;2022-11-14T18:07:56;8.57;;;2.28;;
63288;SDS011;49412;48.162;-1.978;2022-11-14T18:10:22;9.80;;;2.25;;
63288;SDS011;49412;48.162;-1.978;2022-11-14T18:17:39;15.80;;;2.28;;
63288;SDS011;49412;48.162;-1.978;2022-11-14T18:22:31;9.75;;;2.05;;
63288;SDS011;49412;48.162;-1.978;2022-11-14T18:27:23;11.27;;;2.83;;
63288;SDS011;49412;48.162;-1.978;2022-11-14T18:29:49;11.55;;;2.03;;
63288;SDS011;49412;48.162;-1.978;2022-11-14T18:32:15;8.05;;;1.80;;
63288;SDS011;49412;48.162;-1.978;2022-11-14T18:34:41;10.88;;;2.33;;
63288;SDS011;49412;48.162;-1.978;2022-11-14T18:37:06;8.35;;;2.10;;
63288;SDS011;49412;48.162;-1.978;2022-11-14T18:39:32;11.27;;;2.33;;
63288;SDS011;49412;48.162;-1.978;2022-11-14T18:41:58;9.55;;;2.13;;
63288;SDS011;49412;48.162;-1.978;2022-11-14T18:44:26;12.10;;;1.83;;
63288;SDS011;49412;48.162;-1.978;2022-11-14T18:46:52;10.43;;;2.53;;
63288;SDS011;49412;48.162;-1.978;2022-11-14T18:49:17;8.68;;;2.25;;
63288;SDS011;49412;48.162;-1.978;2022-11-14T18:51:43;10.80;;;2.53;;
63288;SDS011;49412;48.162;-1.978;2022-11-14T18:54:12;12.85;;;2.30;;
63288;SDS011;49412;48.162;-1.978;2022-11-14T18:56:40;9.35;;;2.10;;
63288;SDS011;49412;48.162;-1.978;2022-11-14T18:59:06;9.60;;;2.35;;
63288;SDS011;49412;48.162;-1.978;2022-11-14T19:01:32;14.35;;;2.38;;
63288;SDS011;49412;48.162;-1.978;2022-11-14T19:04:03;9.88;;;3.00;;
63288;SDS011;49412;48.162;-1.978;2022-11-14T19:06:30;11.20;;;3.35;;
63288;SDS011;49412;48.162;-1.978;2022-11-14T19:09:02;12.70;;;3.70;;
63288;SDS011;49412;48.162;-1.978;2022-11-14T19:11:33;11.80;;;3.38;;
63288;SDS011;49412;48.162;-1.978;2022-11-14T19:14:17;11.48;;;3.92;;